Random Lake, Wisconsin
Current Conditions -  °F | °C
As of 4:10 PM on Sunday 25 Jan 2015 (Local Time) from KETB Reporting Station
Clear Clear  
Wind Chill: 10°   Ceiling: Unl
Heat Index: 23°   Visibility: 10mi
Dew Point: 10°   Wind: 16mph
Humidity: 59%   Direction: 30°NNE
Pressure: 29.99"   Gusts: 22mph
Location:  43.55°N, 87.96°W
Report Text: KETB 252210Z AUTO 03014G19KT 10SM CLR M05/M12 A2999 RMK AO2
Loading
Personal Weather Stations






























Interactive Weather Map New forecast layout! Learn more

10-Day Weather Forecast

Advertisements
Track Severe Weather on mobile